Airfield :
LOGIN :

Register | Disclaimer

   EN    FR    IT 

 










Legend :    VFR   Marginal VFR   IFR   Intensive IFR   Very Intensive IFR
Visi :
Ceiling :
>= 8 km
>= 3000ft
5 to 8 km
1000 to 3000 ft
1500m to 5 km
500 to 1000 ft
800 to 1500m
200 to 500 ft
< 800m
< 200 ft
Symbols :   Thunderstorms  Fog  Heavy snow  Heavy precipitations  Wind > 20 kt
SIGMETs :     Misc.  Thunderstorms  Icing  Turbulence  Mountain Waves  Volcanic Ashes






- Airport Elevation : 1367 ft
- IATA code : FDH


EDNY - Friedrichshafen

CURRENT METAR :
  • 211620Z 15005KT 120V180 9999 SCT021 BKN042 14/14 Q1009

EXPIRED METARs :
  • 211550Z 15005KT 110V190 9999 -RA FEW006 14/14 Q1009
  • 211520Z 18005KT 140V210 9999 -RA FEW054 14/14 Q1009
  • 211450Z 21006KT 9999 -RA FEW010 BKN043 14/14 Q1009
  • 211420Z 22007KT 9999 -RA FEW005 SCT011 OVC015 13/13 Q1009
  • 211350Z 23008KT 9999 -RA SCT008 SCT021 OVC033 14/14 Q1009
  • 211320Z 23009KT 9999 -RA FEW008 SCT010 OVC027 14/14 Q1009
  • 211250Z 24006KT 9999 -RA SCT008 OVC038 14/14 Q1009
  • 211220Z 24008KT 9999 -RA FEW009 BKN056 14/14 Q1009
  • 211150Z 24010KT 210V270 9999 -RA SCT008 BKN053 14/14 Q1009

TAF TAF EDNY
Valid from the 21 at 15:00 until the 22 at 00:00 UTC


211400Z 2115/2124 22005KT 9999 FEW008 OVC025
TEMPO 2115/2118 RA BKN012



MET'MAP, your aeronautical weather chart ! - Copyright ORBIFLY December 2007 - Disclaimer

ORBIFLY MET'MAP TEAM :

Programming & Development : Alexandra Zaïnal
Original concept : Baudouin d'Aumeries
Technical & hardware support : Manuel Goepfert
Assistance : Marc-Olivier Méhu




SOURCES & CREDITS :

   NOAA